Time;durP1;ratioP1;P1;durP2;ratioP2;P2;SDS_P1;SDS_P2;PMS_P1;PMS_P2;Temp;Humidity;BMP_temperature;BMP_pressure;BME280_temperature;BME280_humidity;BME280_pressure;Samples;Min_cycle;Max_cycle;Signal;HPM_P1;HPM_P2
2023/04/24 00:02:06;;;;;;;95.47;53.05;;;16.60;72.90;;;;;;4992682;28;93544;-80
2023/04/24 00:04:32;;;;;;;92.40;53.30;;;16.60;72.80;;;;;;4988947;28;90431;-84
2023/04/24 00:06:59;;;;;;;93.60;53.65;;;16.50;72.70;;;;;;4991288;28;90021;-81
2023/04/24 00:09:25;;;;;;;90.65;52.97;;;16.50;72.90;;;;;;4990151;28;89878;-81
2023/04/24 00:11:51;;;;;;;89.97;52.85;;;16.50;72.80;;;;;;4990989;28;92631;-83
2023/04/24 00:14:17;;;;;;;91.10;52.92;;;16.50;72.80;;;;;;4994816;28;90553;-81
2023/04/24 00:16:43;;;;;;;90.82;53.33;;;16.50;72.80;;;;;;4987290;28;91713;-80
2023/04/24 00:19:09;;;;;;;91.10;53.22;;;16.50;72.70;;;;;;4992746;28;91271;-81
2023/04/24 00:21:34;;;;;;;91.22;53.45;;;16.50;72.60;;;;;;4998949;28;91350;-80
2023/04/24 00:24:00;;;;;;;93.55;53.20;;;16.50;72.30;;;;;;5000861;28;93169;-83
2023/04/24 00:26:26;;;;;;;91.95;53.30;;;16.40;72.60;;;;;;4997695;28;92724;-82
2023/04/24 00:28:51;;;;;;;91.88;53.22;;;16.40;72.60;;;;;;5000079;28;93688;-81
2023/04/24 00:31:17;;;;;;;92.88;53.22;;;16.40;72.80;;;;;;5001686;28;92285;-81
2023/04/24 00:33:43;;;;;;;93.40;53.00;;;16.50;72.70;;;;;;4997559;28;92988;-85
2023/04/24 00:36:09;;;;;;;93.93;53.00;;;16.40;72.60;;;;;;4995519;28;90408;-81
2023/04/24 00:38:35;;;;;;;90.57;52.85;;;16.50;72.80;;;;;;4992788;28;89837;-81
2023/04/24 00:41:00;;;;;;;90.50;52.88;;;16.40;72.60;;;;;;5004066;28;92892;-81
2023/04/24 00:43:26;;;;;;;91.00;53.13;;;16.40;72.90;;;;;;5001768;28;89523;-83
2023/04/24 00:45:52;;;;;;;91.78;53.13;;;16.40;72.90;;;;;;5004735;28;89444;-82
2023/04/24 00:48:18;;;;;;;91.57;53.10;;;16.40;72.80;;;;;;5009266;28;92945;-80
2023/04/24 00:50:45;;;;;;;92.30;53.03;;;16.40;72.80;;;;;;5005410;28;94825;-81
2023/04/24 00:53:10;;;;;;;91.32;53.00;;;16.40;72.70;;;;;;5014467;27;89706;-81
2023/04/24 00:55:37;;;;;;;91.72;52.78;;;16.30;72.50;;;;;;5004985;28;89583;-85
2023/04/24 00:58:03;;;;;;;89.95;52.65;;;16.30;72.60;;;;;;5006445;28;94168;-81
2023/04/24 01:00:28;;;;;;;89.97;52.38;;;16.30;72.70;;;;;;5001912;28;89626;-85
2023/04/24 01:02:55;;;;;;;90.78;52.42;;;16.30;72.50;;;;;;5002563;28;89708;-81
2023/04/24 01:05:21;;;;;;;90.13;52.97;;;16.30;72.70;;;;;;5003085;28;88411;-80
2023/04/24 01:07:48;;;;;;;89.45;52.53;;;16.30;72.70;;;;;;5002456;28;93221;-81
2023/04/24 01:10:15;;;;;;;89.90;53.10;;;16.30;72.70;;;;;;5001161;28;91448;-80
2023/04/24 01:12:41;;;;;;;89.63;52.60;;;16.30;72.60;;;;;;5003420;28;90631;-84
2023/04/24 01:15:07;;;;;;;91.10;53.13;;;16.30;72.70;;;;;;4998425;28;90314;-80
2023/04/24 01:17:33;;;;;;;91.70;52.58;;;16.20;72.80;;;;;;5001078;28;92915;-81
2023/04/24 01:20:00;;;;;;;90.40;53.15;;;16.20;72.70;;;;;;5017785;27;91902;-81
2023/04/24 01:22:26;;;;;;;92.63;52.70;;;16.20;72.70;;;;;;5003287;28;90310;-81
2023/04/24 01:24:53;;;;;;;90.10;53.17;;;16.20;72.80;;;;;;5020992;27;89741;-81
2023/04/24 01:27:19;;;;;;;91.45;52.92;;;16.20;72.80;;;;;;4998750;28;92568;-81
2023/04/24 01:29:45;;;;;;;90.47;52.58;;;16.20;72.80;;;;;;5002727;28;92478;-82
2023/04/24 01:32:11;;;;;;;89.57;52.75;;;16.20;72.60;;;;;;5007392;28;89732;-82
2023/04/24 01:34:38;;;;;;;90.30;52.90;;;16.20;72.70;;;;;;5002915;28;89912;-82
2023/04/24 01:37:04;;;;;;;90.03;52.92;;;16.20;72.70;;;;;;5002089;28;93409;-81
2023/04/24 01:39:30;;;;;;;90.80;52.95;;;16.20;72.70;;;;;;4998660;28;92096;-84
2023/04/24 01:41:56;;;;;;;90.85;53.30;;;16.10;72.70;;;;;;5002862;28;89934;-81
2023/04/24 01:44:22;;;;;;;91.05;52.88;;;16.10;72.60;;;;;;5002631;28;89758;-81
2023/04/24 01:46:48;;;;;;;89.55;52.97;;;16.10;72.60;;;;;;4999709;28;91575;-82
2023/04/24 01:49:14;;;;;;;89.43;52.92;;;16.10;72.70;;;;;;5003586;28;91733;-83
2023/04/24 01:51:39;;;;;;;91.45;52.55;;;16.10;73.30;;;;;;4999665;28;89755;-81
2023/04/24 01:54:05;;;;;;;89.53;52.47;;;16.10;72.70;;;;;;4996434;28;90032;-82
2023/04/24 01:56:35;;;;;;;91.57;53.20;;;16.10;72.60;;;;;;5003417;28;92805;-81
2023/04/24 01:59:03;;;;;;;91.32;53.20;;;16.10;72.70;;;;;;5003146;28;92303;-82
2023/04/24 02:01:34;;;;;;;89.68;52.70;;;16.10;72.70;;;;;;4997356;28;90598;-80
2023/04/24 02:04:00;;;;;;;89.38;52.80;;;16.10;72.60;;;;;;5001298;28;89870;-81
2023/04/24 02:06:26;;;;;;;89.65;52.63;;;16.10;72.80;;;;;;4996046;28;90330;-81
2023/04/24 02:08:52;;;;;;;89.72;52.55;;;16.00;72.60;;;;;;4997713;28;92302;-81
2023/04/24 02:11:18;;;;;;;90.82;53.22;;;16.00;72.50;;;;;;5000837;28;89947;-82
2023/04/24 02:13:44;;;;;;;89.22;52.78;;;16.00;72.50;;;;;;4999685;28;92771;-82
2023/04/24 02:16:09;;;;;;;89.65;52.78;;;16.10;72.50;;;;;;4999319;28;92206;-81
2023/04/24 02:18:35;;;;;;;90.70;52.85;;;16.00;72.50;;;;;;4998118;28;92967;-86
2023/04/24 02:21:01;;;;;;;90.75;52.92;;;16.00;72.50;;;;;;4998991;28;89725;-82
2023/04/24 02:23:27;;;;;;;91.18;52.30;;;16.00;72.50;;;;;;5000328;28;94910;-82
2023/04/24 02:25:53;;;;;;;89.88;52.80;;;16.00;72.30;;;;;;5000461;28;91432;-81
2023/04/24 02:28:19;;;;;;;89.80;52.45;;;16.00;72.40;;;;;;5001684;28;92557;-81
2023/04/24 02:30:45;;;;;;;89.28;52.67;;;16.00;72.40;;;;;;4998905;28;89350;-85
2023/04/24 02:33:11;;;;;;;90.47;52.60;;;16.00;72.00;;;;;;4994356;28;92217;-81
2023/04/24 02:35:37;;;;;;;89.95;52.33;;;15.90;72.20;;;;;;4994015;28;92600;-82
2023/04/24 02:38:03;;;;;;;89.65;52.85;;;15.90;72.10;;;;;;4999222;28;92824;-82
2023/04/24 02:40:29;;;;;;;94.97;53.63;;;15.90;72.40;;;;;;4999335;28;90000;-80
2023/04/24 02:42:54;;;;;;;94.88;53.45;;;15.90;72.50;;;;;;4991954;28;89942;-80
2023/04/24 02:45:20;;;;;;;91.75;53.08;;;15.90;72.50;;;;;;4997637;28;94455;-81
2023/04/24 02:47:45;;;;;;;93.07;53.55;;;15.90;72.50;;;;;;4999695;28;91166;-85
2023/04/24 02:50:11;;;;;;;96.35;53.72;;;15.90;72.80;;;;;;5000691;28;90757;-80
2023/04/24 02:52:37;;;;;;;90.78;53.33;;;15.90;72.80;;;;;;5002603;28;89676;-80
2023/04/24 02:55:02;;;;;;;93.00;52.80;;;15.90;72.70;;;;;;5003790;28;92937;-80
2023/04/24 02:57:28;;;;;;;92.72;53.10;;;15.90;73.20;;;;;;5004414;28;92194;-81
2023/04/24 02:59:54;;;;;;;92.53;53.30;;;15.90;72.90;;;;;;4999548;28;92765;-80
2023/04/24 03:02:20;;;;;;;90.43;53.03;;;15.90;72.90;;;;;;5003627;28;89730;-80
2023/04/24 03:04:48;;;;;;;91.75;53.42;;;15.80;72.80;;;;;;5001202;28;92145;-83
2023/04/24 03:07:14;;;;;;;90.93;53.15;;;15.90;72.90;;;;;;4997576;28;93727;-79
2023/04/24 03:09:40;;;;;;;93.25;53.28;;;15.90;72.90;;;;;;4993514;28;94023;-80
2023/04/24 03:12:06;;;;;;;91.50;53.25;;;15.80;72.40;;;;;;4996625;28;89738;-80
2023/04/24 03:14:32;;;;;;;92.88;53.60;;;15.80;72.50;;;;;;4996295;28;93842;-81
2023/04/24 03:16:58;;;;;;;91.22;53.17;;;15.80;72.50;;;;;;4997756;28;92939;-80
2023/04/24 03:19:23;;;;;;;92.95;53.25;;;15.80;72.50;;;;;;5000145;28;92120;-79
2023/04/24 03:21:49;;;;;;;89.65;52.97;;;15.80;72.70;;;;;;5002265;28;89904;-84
2023/04/24 03:24:15;;;;;;;93.70;53.20;;;15.80;72.70;;;;;;4999033;28;95208;-81
2023/04/24 03:26:41;;;;;;;90.78;53.28;;;15.80;72.60;;;;;;4997840;28;92595;-81
2023/04/24 03:29:07;;;;;;;92.30;53.42;;;15.80;72.60;;;;;;4995022;28;89632;-83
2023/04/24 03:31:32;;;;;;;91.63;53.35;;;15.80;72.50;;;;;;5000241;28;90003;-81
2023/04/24 03:33:58;;;;;;;91.53;53.47;;;15.70;72.10;;;;;;4995044;28;92571;-85
2023/04/24 03:36:23;;;;;;;89.72;53.28;;;15.80;73.20;;;;;;4986475;28;95104;-81
2023/04/24 03:38:49;;;;;;;90.53;53.25;;;15.70;72.60;;;;;;4992384;28;90840;-83
2023/04/24 03:41:15;;;;;;;90.53;53.15;;;15.70;72.40;;;;;;4995270;28;92097;-80
2023/04/24 03:43:40;;;;;;;88.72;52.97;;;15.80;72.50;;;;;;4995324;28;91752;-81
2023/04/24 03:46:09;;;;;;;89.25;53.13;;;15.70;72.40;;;;;;4994522;28;94237;-80
2023/04/24 03:48:34;;;;;;;92.53;53.65;;;15.70;72.50;;;;;;5000425;28;90161;-80
2023/04/24 03:51:00;;;;;;;89.18;53.03;;;15.70;72.40;;;;;;4998871;28;90282;-80
2023/04/24 03:53:26;;;;;;;90.60;52.90;;;15.70;72.40;;;;;;4996365;28;93175;-80
2023/04/24 03:55:53;;;;;;;89.50;53.35;;;15.70;72.50;;;;;;5002458;28;92850;-85
2023/04/24 03:58:18;;;;;;;89.50;52.78;;;15.70;72.40;;;;;;4994004;28;92348;-80
2023/04/24 04:00:46;;;;;;;88.82;52.95;;;15.70;72.40;;;;;;4993851;28;92216;-81
2023/04/24 04:03:13;;;;;;;89.25;53.10;;;15.70;72.50;;;;;;4997613;28;94720;-80
2023/04/24 04:05:39;;;;;;;93.00;53.47;;;15.70;72.40;;;;;;4998989;28;94157;-81
2023/04/24 04:08:05;;;;;;;89.60;52.83;;;15.70;72.10;;;;;;4992533;28;89876;-80
2023/04/24 04:10:31;;;;;;;90.05;53.20;;;15.70;72.40;;;;;;4988592;28;91178;-80
2023/04/24 04:12:56;;;;;;;89.45;52.95;;;15.60;72.20;;;;;;4988772;28;94817;-85
2023/04/24 04:15:22;;;;;;;90.18;53.58;;;15.60;72.50;;;;;;4992802;28;91894;-82
2023/04/24 04:17:47;;;;;;;89.60;53.30;;;15.70;72.40;;;;;;4991084;28;90023;-82
2023/04/24 04:20:13;;;;;;;92.93;53.10;;;15.60;72.40;;;;;;4993024;28;88706;-82
2023/04/24 04:22:39;;;;;;;90.25;53.22;;;15.60;72.50;;;;;;4993560;28;90577;-82
2023/04/24 04:25:06;;;;;;;91.97;53.58;;;15.60;72.40;;;;;;4997123;28;93951;-84
2023/04/24 04:27:32;;;;;;;89.88;53.03;;;15.60;72.20;;;;;;5009091;27;91799;-82
2023/04/24 04:30:04;;;;;;;90.45;53.72;;;15.60;72.30;;;;;;4999751;28;90592;-82
2023/04/24 04:32:33;;;;;;;89.85;52.92;;;15.60;72.30;;;;;;4995127;28;92068;-82
2023/04/24 04:35:02;;;;;;;91.20;52.92;;;15.60;72.10;;;;;;4989047;28;92775;-82
2023/04/24 04:37:33;;;;;;;90.82;53.20;;;15.60;72.10;;;;;;4988954;28;89447;-82
2023/04/24 04:39:59;;;;;;;89.70;53.05;;;15.60;72.30;;;;;;4994678;28;89449;-83
2023/04/24 04:42:26;;;;;;;89.38;52.95;;;15.60;72.10;;;;;;4997335;28;93282;-84
2023/04/24 04:44:52;;;;;;;91.72;53.53;;;15.60;72.20;;;;;;4991296;28;89896;-81
2023/04/24 04:47:21;;;;;;;91.45;53.28;;;15.60;71.90;;;;;;5007335;27;91350;-85
2023/04/24 04:49:48;;;;;;;91.20;53.50;;;15.50;71.80;;;;;;4995635;28;89542;-85
2023/04/24 04:52:13;;;;;;;88.82;52.90;;;15.60;71.90;;;;;;4994777;28;90992;-82
2023/04/24 04:54:39;;;;;;;91.88;53.53;;;15.50;71.70;;;;;;4992556;28;93810;-83
2023/04/24 04:57:06;;;;;;;90.95;53.75;;;15.50;71.90;;;;;;4993341;28;90089;-83
2023/04/24 04:59:31;;;;;;;90.10;53.35;;;15.50;71.80;;;;;;4999755;28;89465;-83
2023/04/24 05:01:57;;;;;;;90.65;53.55;;;15.50;71.70;;;;;;4999903;28;90706;-83
2023/04/24 05:04:23;;;;;;;89.35;53.10;;;15.50;71.70;;;;;;5000566;28;92425;-83
2023/04/24 05:06:50;;;;;;;90.03;53.33;;;15.50;71.70;;;;;;4997946;28;92354;-82
2023/04/24 05:09:16;;;;;;;90.70;53.05;;;15.50;71.80;;;;;;4992245;28;88836;-83
2023/04/24 05:11:42;;;;;;;89.50;53.30;;;15.50;71.70;;;;;;4997041;28;93033;-82
2023/04/24 05:14:07;;;;;;;89.78;52.95;;;15.50;71.80;;;;;;4999345;28;90214;-82
2023/04/24 05:16:33;;;;;;;89.00;53.15;;;15.50;71.70;;;;;;5000410;28;90587;-82
2023/04/24 05:18:59;;;;;;;88.97;53.08;;;15.50;71.70;;;;;;4998287;28;89713;-83
2023/04/24 05:21:25;;;;;;;91.57;53.83;;;15.50;71.80;;;;;;4997151;28;93342;-84
2023/04/24 05:23:50;;;;;;;91.10;53.33;;;15.50;71.80;;;;;;4996407;28;90961;-84
2023/04/24 05:26:17;;;;;;;92.60;53.53;;;15.40;71.80;;;;;;5002525;28;90692;-80
2023/04/24 05:28:43;;;;;;;90.30;53.55;;;15.40;71.90;;;;;;5002317;28;92312;-81
2023/04/24 05:31:09;;;;;;;91.97;53.45;;;15.40;72.00;;;;;;4995329;28;90672;-84
2023/04/24 05:33:35;;;;;;;92.45;53.03;;;15.40;72.00;;;;;;5001760;28;89860;-81
2023/04/24 05:36:00;;;;;;;92.13;53.67;;;15.40;72.10;;;;;;4984676;28;89895;-82
2023/04/24 05:38:26;;;;;;;91.30;53.80;;;15.40;72.10;;;;;;5000148;28;90072;-82
2023/04/24 05:40:53;;;;;;;93.10;53.65;;;15.40;72.30;;;;;;4995271;28;92988;-84
2023/04/24 05:43:18;;;;;;;95.82;54.28;;;15.40;72.30;;;;;;4998810;28;93110;-84
2023/04/24 05:45:44;;;;;;;92.53;53.47;;;15.40;72.30;;;;;;4997095;28;89787;-82
2023/04/24 05:48:10;;;;;;;92.50;54.05;;;15.40;72.50;;;;;;5002952;28;89421;-83
2023/04/24 05:50:36;;;;;;;93.90;53.55;;;15.40;72.80;;;;;;4996568;28;95004;-82
2023/04/24 05:53:02;;;;;;;93.75;53.50;;;15.40;72.70;;;;;;5005054;28;93245;-85
2023/04/24 05:55:27;;;;;;;93.82;54.03;;;15.40;72.60;;;;;;5003154;28;89466;-81
2023/04/24 05:57:53;;;;;;;92.93;53.70;;;15.40;72.70;;;;;;4997042;28;89217;-82
2023/04/24 06:00:19;;;;;;;92.47;53.42;;;15.40;72.50;;;;;;5001311;28;92693;-83
2023/04/24 06:02:46;;;;;;;95.15;54.15;;;15.40;72.60;;;;;;4998190;28;91129;-81
2023/04/24 06:05:12;;;;;;;93.22;53.92;;;15.40;72.70;;;;;;5001121;28;94166;-82
2023/04/24 06:07:38;;;;;;;89.20;53.70;;;15.40;72.50;;;;;;4997748;28;90726;-81
2023/04/24 06:10:04;;;;;;;90.60;53.33;;;15.40;72.50;;;;;;5000653;28;93177;-81
2023/04/24 06:12:30;;;;;;;90.32;53.47;;;15.40;72.40;;;;;;4996114;28;94171;-83
2023/04/24 06:14:56;;;;;;;89.45;53.60;;;15.40;72.30;;;;;;5002014;28;89371;-83
2023/04/24 06:17:21;;;;;;;91.38;53.50;;;15.40;72.30;;;;;;5000495;28;89891;-82
2023/04/24 06:19:47;;;;;;;94.43;53.80;;;15.40;72.50;;;;;;4999086;28;93986;-82
2023/04/24 06:22:13;;;;;;;89.47;53.45;;;15.40;72.20;;;;;;5001946;28;91717;-81
2023/04/24 06:24:40;;;;;;;89.55;53.50;;;15.40;72.50;;;;;;5001809;28;89679;-81
2023/04/24 06:27:05;;;;;;;93.88;53.30;;;15.30;72.20;;;;;;5002397;28;89389;-82
2023/04/24 06:29:33;;;;;;;89.10;53.60;;;15.40;72.40;;;;;;4999161;28;92261;-82
2023/04/24 06:31:58;;;;;;;91.47;53.47;;;15.30;72.30;;;;;;4999315;28;93549;-81
2023/04/24 06:34:24;;;;;;;90.57;53.72;;;15.40;72.30;;;;;;4997733;28;89477;-81
2023/04/24 06:36:50;;;;;;;91.75;53.75;;;15.40;72.30;;;;;;4999678;28;89653;-81
2023/04/24 06:39:15;;;;;;;92.38;53.47;;;15.40;72.30;;;;;;5000476;28;94065;-81
2023/04/24 06:41:41;;;;;;;91.00;53.40;;;15.30;71.90;;;;;;4999302;28;92526;-83
2023/04/24 06:44:07;;;;;;;89.80;53.42;;;15.40;72.00;;;;;;4999724;28;89773;-81
2023/04/24 06:46:32;;;;;;;92.82;53.42;;;15.30;71.80;;;;;;4995704;28;93330;-82
2023/04/24 06:48:58;;;;;;;90.47;53.53;;;15.40;72.10;;;;;;5010875;27;92737;-81
2023/04/24 06:51:25;;;;;;;92.57;53.63;;;15.30;71.60;;;;;;4996702;28;91188;-84
2023/04/24 06:53:52;;;;;;;90.18;53.20;;;15.30;71.80;;;;;;4998415;28;95049;-81
2023/04/24 06:56:18;;;;;;;91.20;53.70;;;15.30;71.80;;;;;;4997761;28;90441;-82
2023/04/24 06:58:44;;;;;;;89.95;53.50;;;15.40;71.90;;;;;;4994197;28;89811;-81
2023/04/24 07:01:11;;;;;;;89.78;53.50;;;15.40;71.80;;;;;;4998808;28;92965;-81
2023/04/24 07:03:36;;;;;;;90.40;53.47;;;15.40;71.70;;;;;;4999040;28;89464;-82
2023/04/24 07:06:03;;;;;;;91.40;53.83;;;15.30;71.90;;;;;;4998760;28;90776;-81
2023/04/24 07:08:30;;;;;;;90.72;53.50;;;15.40;71.80;;;;;;4994200;28;90193;-81
2023/04/24 07:10:56;;;;;;;92.07;54.13;;;15.30;71.50;;;;;;5002250;28;92940;-82
2023/04/24 07:13:23;;;;;;;90.05;53.53;;;15.40;71.50;;;;;;4999068;28;89864;-81
2023/04/24 07:15:50;;;;;;;90.53;54.10;;;15.30;71.70;;;;;;4999947;28;89535;-81
2023/04/24 07:18:16;;;;;;;91.35;53.55;;;15.30;71.40;;;;;;5001263;28;92349;-82
2023/04/24 07:20:42;;;;;;;92.18;54.13;;;15.40;71.50;;;;;;4995863;28;93306;-80
2023/04/24 07:23:08;;;;;;;92.15;53.47;;;15.40;71.60;;;;;;4998604;28;92180;-81
2023/04/24 07:25:34;;;;;;;91.82;54.40;;;15.40;71.60;;;;;;4999701;28;90999;-81
2023/04/24 07:27:59;;;;;;;91.45;53.63;;;15.30;71.40;;;;;;5004751;28;94244;-80
2023/04/24 07:30:25;;;;;;;90.38;53.65;;;15.40;71.40;;;;;;5000476;28;91981;-80
2023/04/24 07:32:51;;;;;;;91.18;54.30;;;15.30;71.40;;;;;;5001929;28;89300;-82
2023/04/24 07:35:17;;;;;;;92.30;53.47;;;15.40;71.40;;;;;;5003287;28;89039;-80
2023/04/24 07:37:45;;;;;;;89.93;53.55;;;15.40;71.40;;;;;;5001803;28;92215;-81
2023/04/24 07:40:12;;;;;;;90.72;53.17;;;15.40;71.50;;;;;;4997461;28;91201;-80
2023/04/24 07:42:38;;;;;;;90.32;53.50;;;15.40;71.60;;;;;;4999016;28;90451;-83
2023/04/24 07:45:04;;;;;;;91.10;53.50;;;15.30;71.70;;;;;;4999993;28;89648;-81
2023/04/24 07:47:30;;;;;;;91.60;53.70;;;15.30;71.50;;;;;;5003053;28;91318;-82
2023/04/24 07:49:56;;;;;;;92.30;54.15;;;15.30;71.20;;;;;;5000457;28;93282;-82
2023/04/24 07:52:22;;;;;;;91.88;53.92;;;15.30;70.90;;;;;;5000097;28;90417;-83
2023/04/24 07:54:47;;;;;;;91.50;53.67;;;15.40;71.50;;;;;;5002051;28;91238;-81
2023/04/24 07:57:13;;;;;;;92.38;53.60;;;15.40;71.20;;;;;;4998019;28;92413;-81
2023/04/24 07:59:39;;;;;;;92.43;53.88;;;15.40;71.20;;;;;;4994899;28;89679;-81
2023/04/24 08:02:06;;;;;;;90.25;53.65;;;15.40;71.40;;;;;;4998921;28;90869;-82
2023/04/24 08:04:32;;;;;;;91.35;53.70;;;15.40;71.30;;;;;;5003926;28;89437;-81
2023/04/24 08:06:57;;;;;;;91.20;54.20;;;15.40;71.20;;;;;;4995055;28;95082;-81
2023/04/24 08:09:23;;;;;;;91.35;54.08;;;15.40;71.20;;;;;;4995987;28;93318;-81
2023/04/24 08:11:49;;;;;;;92.10;53.92;;;15.40;71.40;;;;;;4994265;28;92499;-82
2023/04/24 08:14:15;;;;;;;90.93;54.13;;;15.40;71.10;;;;;;5002876;28;89421;-81
2023/04/24 08:16:41;;;;;;;90.43;53.45;;;15.40;71.10;;;;;;5000043;28;92946;-82
2023/04/24 08:19:07;;;;;;;91.22;53.80;;;15.50;71.50;;;;;;4996445;28;93261;-81
2023/04/24 08:21:33;;;;;;;91.65;53.72;;;15.50;71.40;;;;;;5000973;28;90721;-81
2023/04/24 08:23:58;;;;;;;89.75;53.78;;;15.40;71.10;;;;;;4997345;28;88975;-81
2023/04/24 08:26:24;;;;;;;89.20;53.63;;;15.50;71.30;;;;;;4999485;28;93610;-81
2023/04/24 08:28:50;;;;;;;92.30;54.08;;;15.40;71.10;;;;;;5001885;28;91107;-81
2023/04/24 08:31:16;;;;;;;90.95;53.80;;;15.50;71.50;;;;;;5009933;27;90850;-81
2023/04/24 08:33:44;;;;;;;90.78;53.55;;;15.50;71.50;;;;;;4999507;28;90009;-82
2023/04/24 08:36:10;;;;;;;90.30;53.97;;;15.50;71.30;;;;;;5001037;28;91689;-81
2023/04/24 08:38:36;;;;;;;90.78;53.78;;;15.50;71.50;;;;;;4998418;28;90071;-81
2023/04/24 08:41:04;;;;;;;91.82;53.67;;;15.50;71.40;;;;;;5000752;28;92095;-82
2023/04/24 08:43:31;;;;;;;90.38;53.78;;;15.50;71.30;;;;;;5010643;28;89418;-81
2023/04/24 08:45:57;;;;;;;91.53;53.85;;;15.50;71.30;;;;;;5001451;28;91924;-81
2023/04/24 08:48:23;;;;;;;92.28;53.97;;;15.50;71.30;;;;;;4999724;28;91206;-82
2023/04/24 08:50:50;;;;;;;90.07;53.85;;;15.50;71.60;;;;;;4993976;28;90089;-82
2023/04/24 08:53:17;;;;;;;93.13;53.95;;;15.50;71.50;;;;;;4997511;28;89946;-82
2023/04/24 08:55:46;;;;;;;90.43;53.88;;;15.50;71.60;;;;;;5013749;27;94458;-81
2023/04/24 08:58:12;;;;;;;92.05;53.75;;;15.50;71.30;;;;;;5007707;27;91251;-81
2023/04/24 09:00:39;;;;;;;93.70;53.33;;;15.50;71.40;;;;;;5003009;28;89112;-83
2023/04/24 09:03:06;;;;;;;92.05;54.13;;;15.50;71.30;;;;;;5006205;28;90244;-81
2023/04/24 09:05:33;;;;;;;91.57;54.33;;;15.50;71.60;;;;;;5003175;28;92282;-82
2023/04/24 09:08:01;;;;;;;92.05;53.92;;;15.50;71.40;;;;;;4998225;28;93068;-85
2023/04/24 09:10:30;;;;;;;93.50;54.03;;;15.50;71.50;;;;;;4997976;28;92883;-81
2023/04/24 09:12:58;;;;;;;90.70;54.17;;;15.50;71.60;;;;;;5004299;28;89376;-82
2023/04/24 09:15:25;;;;;;;90.60;53.47;;;15.50;71.40;;;;;;5017550;27;94011;-81
2023/04/24 09:17:51;;;;;;;93.15;53.88;;;15.50;71.30;;;;;;4999707;28;91466;-82
2023/04/24 09:20:16;;;;;;;96.78;54.35;;;15.50;71.30;;;;;;4998844;28;90892;-81
2023/04/24 09:22:44;;;;;;;89.78;53.58;;;15.60;71.10;;;;;;4999984;28;89681;-82
2023/04/24 09:25:12;;;;;;;91.30;54.53;;;15.60;71.20;;;;;;4998113;28;93171;-82
2023/04/24 09:27:43;;;;;;;93.53;54.30;;;15.60;70.80;;;;;;5000275;28;92667;-82
2023/04/24 09:30:09;;;;;;;93.05;54.17;;;15.60;71.00;;;;;;4999815;28;90082;-82
2023/04/24 09:32:34;;;;;;;89.60;53.65;;;15.60;70.80;;;;;;5005014;28;89473;-82
2023/04/24 09:35:09;;;;;;;91.32;53.85;;;15.60;71.00;;;;;;5006540;28;91930;-81
2023/04/24 09:37:41;;;;;;;92.05;54.42;;;15.60;71.10;;;;;;4999475;28;89901;-81
2023/04/24 09:40:07;;;;;;;;;;;15.70;70.60;;;;;;5000604;28;89283;-82
2023/04/24 09:42:33;;;;;;;88.60;53.28;;;15.70;71.00;;;;;;5017189;28;90236;-82
2023/04/24 09:44:58;;;;;;;90.30;53.90;;;15.70;71.00;;;;;;5002116;28;94079;-82
2023/04/24 09:47:24;;;;;;;91.30;53.75;;;15.70;70.90;;;;;;4996433;28;93669;-81
2023/04/24 09:49:49;;;;;;;91.80;54.00;;;15.70;70.90;;;;;;5005304;28;92402;-83
2023/04/24 09:52:15;;;;;;;90.25;53.67;;;15.70;70.80;;;;;;4998326;28;89757;-83
2023/04/24 09:54:41;;;;;;;92.10;54.28;;;15.70;71.00;;;;;;5002627;28;91698;-82
2023/04/24 09:57:09;;;;;;;91.43;53.90;;;15.70;70.70;;;;;;5004089;28;90505;-81
2023/04/24 09:59:38;;;;;;;92.03;54.33;;;15.70;70.90;;;;;;5001103;28;89946;-85
2023/04/24 10:02:17;;;;;;;91.22;54.00;;;15.70;70.90;;;;;;5001752;28;88789;-82
2023/04/24 10:04:55;;;;;;;91.53;54.13;;;15.70;70.90;;;;;;5003464;28;90279;-82
2023/04/24 10:07:21;;;;;;;92.28;54.53;;;15.70;70.70;;;;;;5003077;28;92427;-81
2023/04/24 10:09:47;;;;;;;92.25;54.15;;;15.80;70.90;;;;;;5006144;28;90857;-82
2023/04/24 10:12:14;;;;;;;93.25;55.15;;;15.80;71.00;;;;;;4998979;27;90279;-81
2023/04/24 10:14:40;;;;;;;92.35;54.40;;;15.80;70.70;;;;;;5001765;28;91157;-82
2023/04/24 10:17:06;;;;;;;90.40;54.05;;;15.80;71.60;;;;;;4999094;28;92230;-81
2023/04/24 10:19:33;;;;;;;93.85;55.40;;;15.80;71.00;;;;;;5000219;28;89322;-82
2023/04/24 10:22:00;;;;;;;91.43;54.28;;;15.80;70.90;;;;;;5000127;28;89355;-82
2023/04/24 10:24:26;;;;;;;93.68;54.33;;;15.80;71.10;;;;;;4998086;28;92721;-82
2023/04/24 10:26:53;;;;;;;92.97;55.10;;;15.90;71.10;;;;;;5002358;28;91855;-82
2023/04/24 10:29:19;;;;;;;93.05;54.45;;;15.80;71.00;;;;;;4996737;28;89577;-82
2023/04/24 10:31:46;;;;;;;92.05;55.08;;;15.90;71.00;;;;;;5002263;28;90669;-81
2023/04/24 10:34:12;;;;;;;92.68;54.70;;;15.90;71.00;;;;;;4995307;28;91269;-84
2023/04/24 10:36:43;;;;;;;91.75;54.45;;;15.90;70.90;;;;;;5003406;28;93314;-81
2023/04/24 10:39:12;;;;;;;91.57;54.35;;;15.90;70.90;;;;;;4998417;28;89270;-82
2023/04/24 10:41:38;;;;;;;91.95;54.20;;;15.90;71.10;;;;;;5003066;28;89801;-81
2023/04/24 10:44:15;;;;;;;92.53;54.78;;;15.90;71.10;;;;;;5000562;28;89570;-83
2023/04/24 10:46:54;;;;;;;90.88;54.28;;;15.90;71.70;;;;;;5013371;27;92145;-82
2023/04/24 10:49:29;;;;;;;91.85;54.78;;;15.90;71.10;;;;;;5003811;28;92084;-81
2023/04/24 10:52:01;;;;;;;92.22;54.35;;;15.90;71.10;;;;;;5003650;28;89240;-82
2023/04/24 10:54:27;;;;;;;;;;;15.90;71.20;;;;;;4999928;28;92903;-82
2023/04/24 10:57:13;;;;;;;91.30;54.25;;;16.00;71.40;;;;;;4997087;28;92301;-82
2023/04/24 10:59:39;;;;;;;92.03;54.72;;;16.00;71.30;;;;;;5002646;28;90816;-84
2023/04/24 11:02:08;;;;;;;94.30;55.58;;;16.00;71.10;;;;;;5002232;28;89612;-81
2023/04/24 11:04:35;;;;;;;93.82;55.28;;;16.00;71.30;;;;;;4995100;28;92690;-82
2023/04/24 11:07:00;;;;;;;93.72;55.22;;;16.00;71.30;;;;;;4997738;28;91565;-81
2023/04/24 11:09:28;;;;;;;91.15;54.30;;;16.00;71.40;;;;;;4995456;28;92066;-82
2023/04/24 11:12:06;;;;;;;91.90;54.47;;;16.00;71.40;;;;;;5004530;28;89419;-81
2023/04/24 11:14:59;;;;;;;90.80;54.03;;;16.00;71.50;;;;;;4999508;28;89905;-84
2023/04/24 11:17:39;;;;;;;91.80;54.53;;;16.00;71.50;;;;;;4999193;28;91314;-82
2023/04/24 11:20:10;;;;;;;93.18;54.13;;;16.00;71.50;;;;;;4999121;28;90103;-82
2023/04/24 11:22:40;;;;;;;93.47;55.08;;;16.00;71.60;;;;;;4997859;28;89722;-82
2023/04/24 11:25:06;;;;;;;93.07;54.55;;;16.00;71.50;;;;;;5016432;28;94136;-82
2023/04/24 11:27:39;;;;;;;91.80;54.08;;;16.00;71.40;;;;;;5006249;28;93826;-82
2023/04/24 11:30:05;;;;;;;91.85;54.30;;;16.10;71.40;;;;;;5013615;28;89869;-82
2023/04/24 11:32:33;;;;;;;94.75;54.85;;;16.00;71.30;;;;;;5002929;28;90017;-82
2023/04/24 11:35:01;;;;;;;92.72;55.17;;;16.00;71.30;;;;;;4998420;28;93191;-81
2023/04/24 11:37:34;;;;;;;93.30;54.42;;;16.10;71.40;;;;;;5003286;28;91772;-81
2023/04/24 11:39:59;;;;;;;93.40;54.55;;;16.00;71.20;;;;;;5000809;28;90552;-84
2023/04/24 11:42:25;;;;;;;92.18;54.53;;;16.10;71.20;;;;;;5001058;28;88850;-82
2023/04/24 11:44:55;;;;;;;91.13;54.08;;;16.10;71.30;;;;;;5000774;28;90416;-81
2023/04/24 11:47:29;;;;;;;92.18;54.63;;;16.10;71.30;;;;;;4986942;28;92153;-82
2023/04/24 11:49:54;;;;;;;91.70;54.53;;;16.10;71.40;;;;;;4996380;28;90604;-82
2023/04/24 11:52:20;;;;;;;94.45;54.78;;;16.10;71.40;;;;;;4999543;28;89271;-84
2023/04/24 11:54:50;;;;;;;92.05;54.60;;;16.00;71.30;;;;;;5003758;28;91777;-81
2023/04/24 11:57:16;;;;;;;92.13;54.80;;;16.10;71.40;;;;;;4993574;28;94078;-81
2023/04/24 11:59:42;;;;;;;91.40;54.63;;;16.10;71.40;;;;;;4996234;28;90250;-82
2023/04/24 12:02:08;;;;;;;93.18;54.58;;;16.10;71.40;;;;;;5013579;27;89975;-82
2023/04/24 12:04:40;;;;;;;93.55;54.45;;;16.10;72.10;;;;;;5002135;28;92115;-82
2023/04/24 12:07:08;;;;;;;91.38;54.30;;;16.10;71.30;;;;;;4993186;28;92749;-82
2023/04/24 12:09:45;;;;;;;92.35;54.72;;;16.10;71.30;;;;;;4998797;28;89830;-82
2023/04/24 12:12:12;;;;;;;92.03;54.92;;;16.10;71.20;;;;;;4999909;28;90207;-83
2023/04/24 12:14:44;;;;;;;91.95;54.70;;;16.10;71.20;;;;;;4999286;28;91231;-81
2023/04/24 12:17:09;;;;;;;92.18;54.80;;;16.10;71.20;;;;;;5014878;27;94584;-82
2023/04/24 12:19:35;;;;;;;91.80;54.50;;;16.10;71.10;;;;;;4995933;28;89906;-81
2023/04/24 12:22:07;;;;;;;93.28;54.85;;;16.10;71.10;;;;;;5000665;28;89546;-81
2023/04/24 12:24:32;;;;;;;91.68;54.58;;;16.10;71.00;;;;;;5001039;28;93311;-81
2023/04/24 12:26:58;;;;;;;92.45;54.78;;;16.10;71.00;;;;;;4994530;28;90303;-84